Terminal Aerodrome Forecast
Issued by NWS

Home | Current Version | Previous Version | Text Only | Print | Product List | Glossary On
Versions: 1 2 3 4 5 6 7 8 9 10 11 12 13 14 15 16
000
FTUS43 KMQT 201137 AAA
TAFIWD
TAF AMD
KIWD 201137Z 2012/2112 16004KT P6SM BKN090
     FM201700 14003KT 6SM BR VCSH OVC030
     FM201800 14003KT 6SM -SHRA BR OVC010
     FM201900 14003KT 5SM -SHRA BR OVC008
     FM210100 14005KT 3SM BR VCSH OVC008
     FM210300 13004KT 5SM BR VCSH OVC003
     FM210600 14006KT P6SM OVC003
     FM210800 14006KT P6SM OVC008=

USA.gov is the U.S. government's official web portal to all federal, state and local government web resources and services.